createdAt,value
2018-04-14T00:01:58.430Z,69.80
2018-04-14T00:04:25.864Z,70.20
2018-04-14T00:06:54.067Z,70.00
2018-04-14T00:09:21.516Z,70.00
2018-04-14T00:11:48.959Z,69.90
2018-04-14T00:14:17.167Z,70.00
2018-04-14T00:16:44.716Z,70.00
2018-04-14T00:19:12.144Z,70.10
2018-04-14T00:21:40.365Z,70.40
2018-04-14T00:24:07.812Z,70.30
2018-04-14T00:26:35.261Z,70.20
2018-04-14T00:29:02.717Z,70.30
2018-04-14T00:31:30.140Z,70.30
2018-04-14T00:33:58.356Z,70.10
2018-04-14T00:36:25.804Z,70.10
2018-04-14T00:38:53.247Z,70.00
2018-04-14T00:41:20.688Z,70.00
2018-04-14T00:43:48.896Z,70.50
2018-04-14T00:46:16.348Z,70.50
2018-04-14T00:48:43.801Z,70.60
2018-04-14T00:51:11.224Z,70.40
2018-04-14T00:53:47.344Z,70.40
2018-04-14T00:56:14.781Z,70.40
2018-04-14T00:58:42.220Z,70.40
2018-04-14T01:01:09.677Z,71.00
2018-04-14T01:03:37.116Z,70.80
2018-04-14T01:06:04.653Z,71.00
2018-04-14T01:08:32.074Z,71.40
2018-04-14T01:10:59.520Z,70.80
2018-04-14T01:13:26.980Z,70.60
2018-04-14T01:15:54.433Z,70.70
2018-04-14T01:18:21.864Z,70.80
2018-04-14T01:20:49.316Z,71.20
2018-04-14T01:23:17.648Z,71.30
2018-04-14T01:25:45.096Z,72.40
2018-04-14T01:28:12.536Z,72.80
2018-04-14T01:30:39.964Z,73.00
2018-04-14T01:33:07.415Z,73.30
2018-04-14T01:35:35.613Z,73.20
2018-04-14T01:38:03.053Z,73.00
2018-04-14T01:40:31.252Z,72.70
2018-04-14T01:42:58.704Z,72.70
2018-04-14T01:45:26.143Z,72.40
2018-04-14T01:47:53.581Z,72.20
2018-04-14T01:50:21.800Z,70.60
2018-04-14T01:52:49.257Z,70.40
2018-04-14T01:55:16.947Z,70.10
2018-04-14T01:57:44.376Z,70.20
2018-04-14T02:00:11.829Z,70.00
2018-04-14T02:02:39.274Z,71.00
2018-04-14T02:05:06.713Z,70.10
2018-04-14T02:07:34.920Z,70.90
2018-04-14T02:10:02.436Z,70.90
2018-04-14T02:12:30.648Z,71.60
2018-04-14T02:14:58.085Z,71.60
2018-04-14T02:17:25.524Z,71.70
2018-04-14T02:19:53.716Z,71.70
2018-04-14T02:22:21.160Z,71.60
2018-04-14T02:24:49.372Z,71.60
2018-04-14T02:27:16.827Z,71.50
2018-04-14T02:29:44.253Z,71.60
2018-04-14T02:32:12.473Z,71.50
2018-04-14T02:34:39.912Z,71.40
2018-04-14T02:37:07.345Z,71.50
2018-04-14T02:39:34.845Z,71.60
2018-04-14T02:42:02.293Z,71.90
2018-04-14T02:44:29.738Z,71.90
2018-04-14T02:46:57.171Z,72.10
2018-04-14T02:49:25.368Z,71.70
2018-04-14T02:51:52.812Z,71.50
2018-04-14T02:54:20.241Z,71.20
2018-04-14T02:56:48.437Z,71.40
2018-04-14T02:59:15.873Z,71.30
2018-04-14T03:01:44.073Z,71.10
2018-04-14T03:04:11.519Z,70.90
2018-04-14T03:06:39.702Z,71.40
2018-04-14T03:09:07.342Z,71.30
2018-04-14T03:11:34.730Z,71.50
2018-04-14T03:14:02.144Z,71.60
2018-04-14T03:16:30.421Z,72.10
2018-04-14T03:18:58.638Z,71.20
2018-04-14T03:21:26.041Z,71.10
2018-04-14T03:23:53.480Z,71.30
2018-04-14T03:26:20.905Z,71.10
2018-04-14T03:28:48.580Z,71.20
2018-04-14T03:31:16.052Z,71.20
2018-04-14T03:33:43.444Z,71.60
2018-04-14T03:36:11.710Z,71.10
2018-04-14T03:38:39.885Z,71.00
2018-04-14T03:41:08.090Z,71.00
2018-04-14T03:43:35.528Z,70.50
2018-04-14T03:46:03.729Z,70.30
2018-04-14T03:48:31.221Z,70.30
2018-04-14T03:50:58.663Z,70.30
2018-04-14T03:53:26.112Z,70.30
2018-04-14T03:55:53.580Z,70.40
2018-04-14T03:58:21.004Z,70.40
2018-04-14T04:00:48.453Z,70.30
2018-04-14T04:03:15.892Z,70.10
2018-04-14T04:05:44.088Z,70.00
2018-04-14T04:08:11.527Z,69.90
2018-04-14T04:10:39.721Z,70.30
2018-04-14T04:13:07.156Z,70.20
2018-04-14T04:15:34.593Z,70.60
2018-04-14T04:18:02.028Z,70.80
2018-04-14T04:20:42.924Z,71.20
2018-04-14T04:23:22.210Z,71.20
2018-04-14T04:25:49.632Z,71.30
2018-04-14T04:28:17.840Z,71.50
2018-04-14T04:30:45.268Z,71.40
2018-04-14T04:33:13.469Z,71.60
2018-04-14T04:35:40.946Z,71.60
2018-04-14T04:38:08.387Z,71.60
2018-04-14T04:40:35.808Z,71.70
2018-04-14T04:43:04.012Z,71.70
2018-04-14T04:45:31.432Z,71.60
2018-04-14T04:47:59.631Z,71.40
2018-04-14T04:50:27.053Z,71.30
2018-04-14T04:52:54.580Z,71.30
2018-04-14T04:55:22.221Z,72.10
2018-04-14T04:57:49.785Z,71.10
2018-04-14T05:00:17.200Z,71.40
2018-04-14T05:02:45.408Z,71.90
2018-04-14T05:05:12.849Z,71.80
2018-04-14T05:07:40.271Z,71.70
2018-04-14T05:10:07.698Z,71.50
2018-04-14T05:12:35.135Z,71.10
2018-04-14T05:15:02.579Z,70.80
2018-04-14T05:17:30.001Z,70.80
2018-04-14T05:19:57.435Z,70.40
2018-04-14T05:22:24.874Z,70.50
2018-04-14T05:24:52.317Z,70.40
2018-04-14T05:27:19.741Z,70.50
2018-04-14T05:29:47.936Z,70.60
2018-04-14T05:32:15.379Z,70.60
2018-04-14T05:34:43.559Z,70.80
2018-04-14T05:37:10.993Z,70.80
2018-04-14T05:39:39.184Z,71.60
2018-04-14T05:42:06.645Z,71.60
2018-04-14T05:44:34.838Z,71.30
2018-04-14T05:47:02.252Z,71.10
2018-04-14T05:49:30.453Z,69.80
2018-04-14T05:51:57.881Z,69.70
2018-04-14T05:54:25.509Z,69.50
2018-04-14T05:56:52.942Z,69.00
2018-04-14T05:59:20.360Z,69.30
2018-04-14T06:01:48.579Z,68.10
2018-04-14T06:04:16.012Z,68.00
2018-04-14T06:06:43.448Z,67.30
2018-04-14T06:09:11.711Z,66.40
2018-04-14T06:11:39.097Z,66.30
2018-04-14T06:14:06.537Z,66.00
2018-04-14T06:16:34.797Z,66.00
2018-04-14T06:19:02.238Z,65.90
2018-04-14T06:21:29.680Z,65.60
2018-04-14T06:23:57.111Z,64.90
2018-04-14T06:26:24.551Z,65.50
2018-04-14T06:28:52.763Z,65.40
2018-04-14T06:31:20.211Z,65.30
2018-04-14T06:33:47.700Z,68.20
2018-04-14T06:36:15.342Z,64.30
2018-04-14T06:38:42.764Z,63.10
2018-04-14T06:41:10.200Z,62.40
2018-04-14T06:43:38.409Z,61.90
2018-04-14T06:46:06.005Z,61.70
2018-04-14T06:48:33.440Z,61.20
2018-04-14T06:51:00.881Z,61.30
2018-04-14T06:53:28.324Z,60.00
2018-04-14T06:55:55.811Z,59.30
2018-04-14T06:58:23.970Z,58.90
2018-04-14T07:00:51.392Z,58.80
2018-04-14T07:03:19.602Z,58.20
2018-04-14T07:05:47.048Z,58.10
2018-04-14T07:08:14.470Z,57.60
2018-04-14T07:10:42.686Z,57.00
2018-04-14T07:13:10.131Z,57.00
2018-04-14T07:15:37.572Z,58.20
2018-04-14T07:18:05.770Z,55.80
2018-04-14T07:20:33.208Z,55.70
2018-04-14T07:23:01.419Z,55.10
2018-04-14T07:25:28.862Z,55.00
2018-04-14T07:27:56.307Z,55.30
2018-04-14T07:30:23.729Z,54.80
2018-04-14T07:32:51.182Z,54.00
2018-04-14T07:35:19.380Z,54.60
2018-04-14T07:37:47.581Z,51.60
2018-04-14T07:40:15.021Z,51.60
2018-04-14T07:42:42.448Z,51.90
2018-04-14T07:45:10.697Z,51.10
2018-04-14T07:47:38.146Z,51.00
2018-04-14T07:50:05.594Z,50.80
2018-04-14T07:52:33.026Z,48.90
2018-04-14T07:55:00.456Z,49.50
2018-04-14T07:57:28.667Z,48.20
2018-04-14T07:59:56.126Z,48.10
2018-04-14T08:02:23.544Z,47.80
2018-04-14T08:04:51.760Z,47.70
2018-04-14T08:07:19.187Z,47.60
2018-04-14T08:09:47.419Z,47.90
2018-04-14T08:12:14.873Z,47.90
2018-04-14T08:14:42.298Z,46.50
2018-04-14T08:17:10.082Z,46.10
2018-04-14T08:19:37.519Z,44.80
2018-04-14T08:22:04.951Z,45.40
2018-04-14T08:24:33.160Z,46.10
2018-04-14T08:27:00.616Z,46.00
2018-04-14T08:29:28.061Z,47.40
2018-04-14T08:31:55.502Z,47.60
2018-04-14T08:34:22.954Z,45.90
2018-04-14T08:36:50.388Z,47.00
2018-04-14T08:39:17.823Z,46.90
2018-04-14T08:41:45.289Z,44.50
2018-04-14T08:44:12.734Z,45.90
2018-04-14T08:46:40.187Z,46.00
2018-04-14T08:49:07.638Z,45.40
2018-04-14T08:51:35.085Z,45.10
2018-04-14T08:54:02.590Z,45.00
2018-04-14T08:56:29.984Z,45.00
2018-04-14T08:58:57.442Z,45.30
2018-04-14T09:01:24.931Z,44.00
2018-04-14T09:03:52.355Z,44.90
2018-04-14T09:06:19.799Z,46.80
2018-04-14T09:11:21.303Z,44.00
2018-04-14T09:13:48.742Z,43.10
2018-04-14T09:16:16.181Z,42.30
2018-04-14T09:18:43.624Z,41.50
2018-04-14T09:21:11.823Z,43.10
2018-04-14T09:23:39.277Z,43.10
2018-04-14T09:26:06.705Z,42.70
2018-04-14T09:28:35.018Z,38.60
2018-04-14T09:31:02.451Z,38.60
2018-04-14T09:33:29.896Z,38.30
2018-04-14T09:35:58.114Z,37.60
2018-04-14T09:38:25.546Z,37.60
2018-04-14T09:40:53.034Z,38.20
2018-04-14T09:43:20.728Z,38.50
2018-04-14T09:45:48.921Z,36.10
2018-04-14T09:48:17.122Z,36.50
2018-04-14T09:50:44.582Z,36.40
2018-04-14T09:53:12.020Z,35.10
2018-04-14T09:55:40.234Z,33.30
2018-04-14T09:58:07.670Z,33.30
2018-04-14T10:00:40.833Z,35.00
2018-04-14T10:03:29.987Z,34.30
2018-04-14T10:05:58.197Z,34.80
2018-04-14T10:08:25.643Z,34.70
2018-04-14T10:10:53.098Z,34.50
2018-04-14T10:13:20.518Z,32.90
2018-04-14T10:15:47.953Z,34.80
2018-04-14T10:18:15.392Z,33.10
2018-04-14T10:20:42.846Z,32.80
2018-04-14T10:23:10.281Z,32.60
2018-04-14T10:25:37.825Z,32.10
2018-04-14T10:28:06.025Z,31.40
2018-04-14T10:30:33.480Z,31.40
2018-04-14T10:33:00.912Z,31.00
2018-04-14T10:35:29.117Z,32.80
2018-04-14T10:37:56.589Z,32.80
2018-04-14T10:40:24.046Z,31.60
2018-04-14T10:42:51.705Z,34.30
2018-04-14T10:45:19.131Z,33.20
2018-04-14T10:47:46.561Z,32.20
2018-04-14T10:50:15.007Z,32.10
2018-04-14T10:52:42.498Z,32.00
2018-04-14T10:55:10.697Z,29.60
2018-04-14T10:57:38.157Z,29.60
2018-04-14T11:00:05.592Z,31.90
2018-04-14T11:02:33.801Z,31.10
2018-04-14T11:05:01.246Z,31.10
2018-04-14T11:07:28.681Z,30.70
2018-04-14T11:09:56.900Z,28.00
2018-04-14T11:12:24.317Z,27.90
2018-04-14T11:14:52.533Z,30.00
2018-04-14T11:17:19.976Z,30.00
2018-04-14T11:19:47.426Z,29.10
2018-04-14T11:22:14.850Z,30.20
2018-04-14T11:24:43.044Z,29.50
2018-04-14T11:27:10.490Z,29.50
2018-04-14T11:29:38.692Z,29.20
2018-04-14T11:32:06.148Z,29.20
2018-04-14T11:34:33.572Z,29.20
2018-04-14T11:37:01.796Z,29.10
2018-04-14T11:39:29.220Z,29.00
2018-04-14T11:41:56.667Z,29.40
2018-04-14T11:44:24.373Z,30.10
2018-04-14T11:46:51.805Z,29.30
2018-04-14T11:49:19.231Z,31.00
2018-04-14T11:51:47.459Z,32.90
2018-04-14T11:54:14.885Z,32.80
2018-04-14T11:56:42.325Z,33.20
2018-04-14T11:59:10.513Z,32.40
2018-04-14T12:01:37.964Z,32.30
2018-04-14T12:04:05.393Z,32.90
2018-04-14T12:06:32.832Z,32.80
2018-04-14T12:09:00.485Z,34.60
2018-04-14T12:11:27.914Z,36.30
2018-04-14T12:13:55.344Z,33.10
2018-04-14T12:16:23.549Z,34.90
2018-04-14T12:18:50.985Z,34.90
2018-04-14T12:21:18.428Z,33.50
2018-04-14T12:23:46.631Z,32.80
2018-04-14T12:26:14.269Z,32.70
2018-04-14T12:28:42.466Z,32.20
2018-04-14T12:31:09.898Z,32.10
2018-04-14T12:33:38.121Z,33.00
2018-04-14T12:36:05.557Z,32.90
2018-04-14T12:38:32.988Z,33.60
2018-04-14T12:41:00.439Z,33.60
2018-04-14T12:43:28.651Z,35.30
2018-04-14T12:45:56.096Z,35.30
2018-04-14T12:48:23.517Z,34.70
2018-04-14T12:50:50.961Z,36.60
2018-04-14T12:53:18.388Z,32.80
2018-04-14T12:55:45.830Z,35.70
2018-04-14T12:58:13.282Z,33.60
2018-04-14T13:00:40.736Z,35.00
2018-04-14T13:03:08.153Z,36.70
2018-04-14T13:05:36.364Z,37.00
2018-04-14T13:08:03.792Z,36.20
2018-04-14T13:10:31.996Z,34.90
2018-04-14T13:12:59.440Z,34.90
2018-04-14T13:15:26.881Z,35.30
2018-04-14T13:17:55.081Z,35.30
2018-04-14T13:20:22.518Z,35.20
2018-04-14T13:22:50.740Z,32.80
2018-04-14T13:25:18.187Z,32.70
2018-04-14T13:27:45.634Z,34.00
2018-04-14T13:30:13.081Z,32.70
2018-04-14T13:32:40.521Z,32.70
2018-04-14T13:35:07.979Z,32.60
2018-04-14T13:37:35.629Z,31.10
2018-04-14T13:40:03.018Z,30.60
2018-04-14T13:42:30.490Z,32.80
2018-04-14T13:44:58.253Z,32.80
2018-04-14T13:47:25.691Z,33.30
2018-04-14T13:49:53.120Z,31.30
2018-04-14T13:52:21.325Z,33.20
2018-04-14T13:54:48.770Z,33.20
2018-04-14T13:57:16.958Z,30.90
2018-04-14T13:59:44.393Z,30.90
2018-04-14T14:02:11.830Z,30.90
2018-04-14T14:04:40.024Z,33.50
2018-04-14T14:07:07.466Z,33.40
2018-04-14T14:09:35.656Z,33.60
2018-04-14T14:12:03.097Z,33.60
2018-04-14T14:14:31.293Z,32.40
2018-04-14T14:16:58.720Z,32.30
2018-04-14T14:19:26.932Z,33.10
2018-04-14T14:21:55.371Z,33.00
2018-04-14T14:24:22.781Z,32.70
2018-04-14T14:26:50.213Z,34.50
2018-04-14T14:29:18.095Z,34.20
2018-04-14T14:31:45.545Z,33.20
2018-04-14T14:34:12.975Z,33.10
2018-04-14T14:36:41.193Z,33.10
2018-04-14T14:39:08.621Z,33.20
2018-04-14T14:41:36.075Z,33.30
2018-04-14T14:44:03.496Z,33.10
2018-04-14T14:46:30.936Z,32.90
2018-04-14T14:48:58.381Z,33.70
2018-04-14T14:51:25.805Z,33.20
2018-04-14T14:53:53.255Z,34.60
2018-04-14T14:56:20.699Z,34.80
2018-04-14T14:58:48.912Z,35.10
2018-04-14T15:01:16.348Z,35.20
2018-04-14T15:03:43.776Z,40.60
2018-04-14T15:06:11.991Z,37.90
2018-04-14T15:08:39.422Z,37.90
2018-04-14T15:11:07.629Z,39.00
2018-04-14T15:13:35.061Z,39.10
2018-04-14T15:16:02.500Z,40.50
2018-04-14T15:18:30.717Z,38.00
2018-04-14T15:20:58.140Z,38.00
2018-04-14T15:23:25.598Z,38.70
2018-04-14T15:25:53.795Z,37.40
2018-04-14T15:28:21.226Z,37.90
2018-04-14T15:30:49.450Z,37.20
2018-04-14T15:33:16.884Z,37.80
2018-04-14T15:35:44.318Z,37.80
2018-04-14T15:38:12.536Z,37.30
2018-04-14T15:40:40.189Z,37.30
2018-04-14T15:43:07.620Z,37.40
2018-04-14T15:45:35.052Z,37.70
2018-04-14T15:48:03.265Z,37.40
2018-04-14T15:50:30.711Z,37.30
2018-04-14T15:52:58.140Z,37.60
2018-04-14T15:55:26.349Z,37.90
2018-04-14T15:57:53.810Z,37.80
2018-04-14T16:00:21.256Z,38.10
2018-04-14T16:02:48.689Z,37.50
2018-04-14T16:05:16.913Z,38.10
2018-04-14T16:10:18.395Z,38.20
2018-04-14T16:12:45.836Z,38.30
2018-04-14T16:15:13.276Z,38.20
2018-04-14T16:17:40.717Z,38.60
2018-04-14T16:20:08.137Z,38.70
2018-04-14T16:22:35.574Z,39.00
2018-04-14T16:25:03.020Z,40.00
2018-04-14T16:27:30.459Z,39.30
2018-04-14T16:29:57.885Z,39.80
2018-04-14T16:32:25.394Z,39.30
2018-04-14T16:34:52.841Z,38.90
2018-04-14T16:37:20.308Z,39.00
2018-04-14T16:39:47.750Z,38.60
2018-04-14T16:42:15.195Z,38.50
2018-04-14T16:44:42.630Z,39.10
2018-04-14T16:47:10.075Z,38.90
2018-04-14T16:49:38.304Z,38.20
2018-04-14T16:52:05.843Z,38.20
2018-04-14T16:54:33.266Z,38.50
2018-04-14T16:57:01.482Z,39.10
2018-04-14T16:59:28.910Z,39.00
2018-04-14T17:01:56.501Z,39.10
2018-04-14T17:04:23.932Z,39.70
2018-04-14T17:06:51.381Z,40.10
2018-04-14T17:09:19.581Z,40.80
2018-04-14T17:11:47.028Z,40.10
2018-04-14T17:14:14.448Z,40.20
2018-04-14T17:16:42.889Z,40.50
2018-04-14T17:19:10.321Z,40.50
2018-04-14T17:21:37.745Z,40.50
2018-04-14T17:24:05.965Z,42.10
2018-04-14T17:26:33.388Z,42.10
2018-04-14T17:29:00.827Z,42.20
2018-04-14T17:31:28.260Z,42.30
2018-04-14T17:33:55.695Z,42.50
2018-04-14T17:36:23.137Z,42.20
2018-04-14T17:38:50.608Z,42.00
2018-04-14T17:41:18.063Z,42.80
2018-04-14T17:43:45.495Z,42.90
2018-04-14T17:46:12.948Z,42.70
2018-04-14T17:48:40.544Z,43.20
2018-04-14T17:51:07.977Z,43.00
2018-04-14T17:53:35.395Z,43.20
2018-04-14T17:56:03.835Z,43.40
2018-04-14T17:58:31.270Z,43.40
2018-04-14T18:00:58.702Z,43.30
2018-04-14T18:03:26.914Z,43.40
2018-04-14T18:05:54.373Z,43.40
2018-04-14T18:08:21.823Z,43.50
2018-04-14T18:10:49.289Z,43.90
2018-04-14T18:13:16.729Z,43.90
2018-04-14T18:15:44.171Z,43.80
2018-04-14T18:18:11.717Z,44.70
2018-04-14T18:20:39.923Z,44.80
2018-04-14T18:23:07.341Z,44.80
2018-04-14T18:25:35.553Z,44.80
2018-04-14T18:28:03.008Z,44.80
2018-04-14T18:30:30.428Z,45.40
2018-04-14T18:32:58.655Z,45.00
2018-04-14T18:35:26.116Z,45.10
2018-04-14T18:37:53.576Z,45.10
2018-04-14T18:40:21.008Z,45.60
2018-04-14T18:42:48.441Z,45.40
2018-04-14T18:45:15.949Z,45.10
2018-04-14T18:47:43.696Z,44.70
2018-04-14T18:50:11.217Z,44.90
2018-04-14T18:52:38.596Z,45.30
2018-04-14T18:55:06.028Z,45.40
2018-04-14T18:57:34.231Z,46.20
2018-04-14T19:00:01.733Z,46.10
2018-04-14T19:02:29.224Z,46.20
2018-04-14T19:04:56.627Z,46.40
2018-04-14T19:07:24.055Z,46.70
2018-04-14T19:09:51.563Z,46.10
2018-04-14T19:12:19.014Z,46.80
2018-04-14T19:14:46.465Z,46.90
2018-04-14T19:17:13.906Z,46.70
2018-04-14T19:19:41.665Z,46.40
2018-04-14T19:22:09.090Z,46.50
2018-04-14T19:24:36.614Z,46.70
2018-04-14T19:27:04.049Z,47.30
2018-04-14T19:29:31.580Z,47.30
2018-04-14T19:31:59.258Z,47.00
2018-04-14T19:34:26.703Z,47.50
2018-04-14T19:36:54.198Z,46.60
2018-04-14T19:39:21.646Z,47.20
2018-04-14T19:41:49.232Z,47.00
2018-04-14T19:44:17.450Z,47.20
2018-04-14T19:46:44.881Z,47.10
2018-04-14T19:49:12.325Z,47.50
2018-04-14T19:51:40.521Z,47.50
2018-04-14T19:54:07.971Z,47.50
2018-04-14T19:56:35.404Z,47.50
2018-04-14T19:59:03.592Z,48.40
2018-04-14T20:01:31.197Z,48.10
2018-04-14T20:03:58.623Z,48.20
2018-04-14T20:06:26.058Z,48.30
2018-04-14T20:08:54.265Z,48.50
2018-04-14T20:11:21.812Z,48.50
2018-04-14T20:13:49.236Z,48.60
2018-04-14T20:16:17.464Z,48.40
2018-04-14T20:18:44.910Z,48.30
2018-04-14T20:21:12.376Z,48.50
2018-04-14T20:23:39.818Z,48.50
2018-04-14T20:26:07.260Z,48.40
2018-04-14T20:28:35.503Z,48.50
2018-04-14T20:31:02.943Z,48.50
2018-04-14T20:33:30.674Z,48.50
2018-04-14T20:35:58.093Z,48.70
2018-04-14T20:38:26.347Z,48.30
2018-04-14T20:40:53.987Z,48.30
2018-04-14T20:43:21.428Z,47.90
2018-04-14T20:45:48.842Z,48.30
2018-04-14T20:48:17.051Z,48.10
2018-04-14T20:50:44.552Z,48.10
2018-04-14T20:53:12.000Z,48.40
2018-04-14T20:55:39.441Z,48.00
2018-04-14T20:58:06.889Z,48.00
2018-04-14T21:00:34.353Z,48.20
2018-04-14T21:03:01.793Z,48.10
2018-04-14T21:05:29.221Z,48.00
2018-04-14T21:07:56.644Z,47.60
2018-04-14T21:10:24.086Z,47.30
2018-04-14T21:12:51.744Z,47.10
2018-04-14T21:15:19.189Z,47.50
2018-04-14T21:17:46.646Z,47.20
2018-04-14T21:20:14.317Z,47.20
2018-04-14T21:22:41.751Z,47.30
2018-04-14T21:25:09.193Z,47.90
2018-04-14T21:27:36.637Z,47.90
2018-04-14T21:30:04.842Z,47.80
2018-04-14T21:32:32.303Z,47.80
2018-04-14T21:34:59.724Z,48.00
2018-04-14T21:37:27.930Z,48.10
2018-04-14T21:39:55.398Z,48.10
2018-04-14T21:42:23.035Z,48.30
2018-04-14T21:44:50.480Z,48.50
2018-04-14T21:47:18.673Z,48.80
2018-04-14T21:49:46.180Z,48.70
2018-04-14T21:52:13.616Z,48.90
2018-04-14T21:54:41.057Z,48.60
2018-04-14T21:57:08.538Z,48.90
2018-04-14T21:59:35.980Z,48.70
2018-04-14T22:02:03.425Z,48.70
2018-04-14T22:04:30.873Z,48.70
2018-04-14T22:06:58.305Z,48.90
2018-04-14T22:09:26.508Z,49.30
2018-04-14T22:11:54.037Z,49.30
2018-04-14T22:14:34.075Z,49.60
2018-04-14T22:17:02.289Z,49.60
2018-04-14T22:19:29.738Z,49.60
2018-04-14T22:21:57.929Z,50.60
2018-04-14T22:24:25.391Z,50.00
2018-04-14T22:26:52.853Z,50.20
2018-04-14T22:29:20.300Z,50.00
2018-04-14T22:31:47.734Z,50.20
2018-04-14T22:34:15.187Z,50.40
2018-04-14T22:36:42.650Z,50.70
2018-04-14T22:39:10.872Z,51.00
2018-04-14T22:41:38.374Z,50.90
2018-04-14T22:44:05.829Z,50.70
2018-04-14T22:46:33.259Z,50.30
2018-04-14T22:49:00.728Z,50.70
2018-04-14T22:51:28.948Z,50.40
2018-04-14T22:53:56.416Z,50.40
2018-04-14T22:56:23.856Z,50.10
2018-04-14T22:58:51.296Z,50.20
2018-04-14T23:01:18.735Z,50.00
2018-04-14T23:03:46.938Z,50.50
2018-04-14T23:06:14.370Z,50.40
2018-04-14T23:08:41.820Z,49.70
2018-04-14T23:11:10.029Z,49.90
2018-04-14T23:13:37.501Z,49.90
2018-04-14T23:16:04.944Z,50.10
2018-04-14T23:18:32.382Z,50.10
2018-04-14T23:20:59.824Z,50.20
2018-04-14T23:23:28.021Z,50.20
2018-04-14T23:25:55.464Z,50.10
2018-04-14T23:28:22.908Z,50.10
2018-04-14T23:30:51.107Z,50.70
2018-04-14T23:33:18.549Z,50.70
2018-04-14T23:35:45.992Z,50.80
2018-04-14T23:38:14.207Z,51.00
2018-04-14T23:40:41.656Z,51.00
2018-04-14T23:43:09.259Z,50.90
2018-04-14T23:45:36.689Z,51.00
2018-04-14T23:48:04.117Z,50.70
2018-04-14T23:50:31.617Z,50.70
2018-04-14T23:52:59.048Z,51.00
2018-04-14T23:55:26.489Z,51.10
2018-04-14T23:57:53.930Z,51.20
